首页
METAR-TAF:

METAR-TAF

机场 :

杰克逊维尔, 佛罗里达州, 美国

纬度: 30-20-10N, 经度: 081-30-53W, 海拔: 12米

当前天气观测

该预报发布于37分钟前的03:53 UTC
风速8节,风向北转东北
温度 10°C
湿度 93%
气压 1020 hPa
能見度: 16.1公里
阴天层高于1100英尺
小雨

METAR: KCRG 210353Z AUTO 03008KT 10SM -RA OVC011 10/09 A3011 RMK AO2 SLP197 P0001 T01000089

时间: 23:30 (04:30 UTC)

预报

该预报发布于2小时和29分钟前的02:01 UTC
预报有效从21日的 02点(UTC)到 21日的 24点(UTC)
风速12节,风向,有时为20节阵风
能見度: 8.0公里
散云层高于600英尺
阴天层高于1200英尺
小雨, 轻雾
从 21日的 0600点(UTC)
风速13节,风向,有时为20节阵风
能見度: 10公里
阴天层高于900英尺
从 21日的 1600点(UTC)
风速17节,风向,有时为25节阵风
能見度: 10公里
散云层高于1000英尺
多云层高于1500英尺
阴天层高于2500英尺
从 21日的 1800点(UTC)
风速20节,风向,有时为30节阵风
能見度: 10公里
散云层高于3000英尺

TAF: KCRG 210201Z 2102/2124 01012G20KT 5SM -RA BR SCT006 OVC012 FM210600 35013G20KT P6SM OVC009 FM211600 01017G25KT P6SM SCT010 BKN015 OVC025 FM211800 36020G30KT P6SM SCT030

超过4000个机场的气象观测和天气预报(METAR&TAF报告)。

可查询的气象台以黄色和红色小点在地图上表示。

将鼠标移到小点上方,可查看气象台名称。

然后点击查看天气观测和预报。

如需切换地图:点击带黑十字的绿色按钮放大地图;点击带横线的绿色按钮缩小地图;或者点击绿色箭头查看邻近地区的地图。


METAR-TAF: